createdAt,value
2022-11-07T00:04:00.029Z,93587.55
2022-11-07T00:09:08.665Z,93587.23
2022-11-07T00:14:21.649Z,93590.53
2022-11-07T00:19:29.876Z,93600.22
2022-11-07T00:24:37.209Z,93591.60
2022-11-07T00:29:44.928Z,93596.34
2022-11-07T00:34:52.992Z,93593.38
2022-11-07T00:40:00.260Z,93598.80
2022-11-07T00:45:09.748Z,93602.66
2022-11-07T00:50:16.545Z,93614.66
2022-11-07T00:55:24.682Z,93613.86
2022-11-07T01:00:32.651Z,93607.16
2022-11-07T01:05:41.160Z,93594.44
2022-11-07T01:10:50.549Z,93604.55
2022-11-07T01:15:57.501Z,93597.42
2022-11-07T01:21:13.694Z,93598.11
2022-11-07T01:26:20.354Z,93592.38
2022-11-07T01:31:28.384Z,93592.69
2022-11-07T01:36:35.337Z,93599.89
2022-11-07T01:41:49.787Z,93596.48
2022-11-07T01:47:03.938Z,93603.84
2022-11-07T01:52:28.128Z,93595.14
2022-11-07T01:57:50.128Z,93598.13
2022-11-07T02:03:09.946Z,93596.55
2022-11-07T02:08:20.344Z,93595.02
2022-11-07T02:13:31.907Z,93596.91
2022-11-07T02:18:43.836Z,93597.71
2022-11-07T02:24:09.630Z,93600.22
2022-11-07T02:29:16.393Z,93588.58
2022-11-07T02:34:23.084Z,93590.85
2022-11-07T02:39:30.771Z,93598.26
2022-11-07T02:44:38.041Z,93603.20
2022-11-07T02:49:44.787Z,93602.04
2022-11-07T02:54:51.467Z,93601.02
2022-11-07T02:59:58.144Z,93609.28
2022-11-07T03:05:04.981Z,93608.83
2022-11-07T03:10:15.277Z,93605.03
2022-11-07T03:15:21.985Z,93611.40
2022-11-07T03:20:30.653Z,93611.50
2022-11-07T03:25:37.473Z,93621.41
2022-11-07T03:30:44.160Z,93629.37
2022-11-07T03:35:50.893Z,93632.91
2022-11-07T03:40:57.712Z,93636.33
2022-11-07T03:46:04.744Z,93636.53
2022-11-07T03:51:12.930Z,93645.77
2022-11-07T03:56:19.680Z,93636.47
2022-11-07T04:01:26.798Z,93653.80
2022-11-07T04:06:34.576Z,93656.11
2022-11-07T04:11:59.318Z,93658.41
2022-11-07T04:17:22.379Z,93663.05
2022-11-07T04:22:29.484Z,93657.26
2022-11-07T04:27:46.877Z,93680.93
2022-11-07T04:33:02.851Z,93679.19
2022-11-07T04:38:09.564Z,93685.38
2022-11-07T04:43:16.584Z,93695.45
2022-11-07T04:48:23.671Z,93682.39
2022-11-07T04:53:30.410Z,93682.05
2022-11-07T04:58:37.145Z,93685.34
2022-11-07T05:03:43.846Z,93694.61
2022-11-07T05:08:50.645Z,93688.54
2022-11-07T05:14:16.899Z,93689.27
2022-11-07T05:19:24.662Z,93699.79
2022-11-07T05:24:33.228Z,93704.84
2022-11-07T05:29:42.062Z,93704.61
2022-11-07T05:34:52.784Z,93714.00
2022-11-07T05:39:59.718Z,93721.95
2022-11-07T05:45:07.147Z,93732.77
2022-11-07T05:50:13.814Z,93734.50
2022-11-07T05:55:20.911Z,93745.25
2022-11-07T06:00:27.971Z,93751.70
2022-11-07T06:05:35.242Z,93762.19
2022-11-07T06:10:43.694Z,93766.07
2022-11-07T06:15:50.957Z,93768.48
2022-11-07T06:20:58.000Z,93774.48
2022-11-07T06:26:07.694Z,93779.39
2022-11-07T06:31:15.207Z,93781.69
2022-11-07T06:36:22.364Z,93796.30
2022-11-07T06:41:29.412Z,93801.19
2022-11-07T06:46:36.828Z,93803.77
2022-11-07T06:51:47.769Z,93803.45
2022-11-07T06:56:52.683Z,93811.97
2022-11-07T07:01:59.737Z,93813.50
2022-11-07T07:07:07.290Z,93830.91
2022-11-07T07:12:13.964Z,93828.59
2022-11-07T07:17:20.788Z,93834.48
2022-11-07T07:22:28.014Z,93825.05
2022-11-07T07:27:34.879Z,93833.16
2022-11-07T07:32:41.789Z,93830.31
2022-11-07T07:37:53.307Z,93827.29
2022-11-07T07:43:00.269Z,93839.16
2022-11-07T07:48:08.238Z,93841.22
2022-11-07T07:53:15.021Z,93840.94
2022-11-07T07:58:21.865Z,93846.28
2022-11-07T08:03:50.732Z,93848.59
2022-11-07T08:08:38.618Z,93857.83
2022-11-07T08:13:46.049Z,93868.03
2022-11-07T08:18:52.834Z,93865.30
2022-11-07T08:24:01.142Z,93877.22
2022-11-07T08:29:08.846Z,93869.41
2022-11-07T08:34:17.313Z,93878.09
2022-11-07T08:39:24.439Z,93865.93
2022-11-07T08:44:33.069Z,93875.59
2022-11-07T08:49:39.847Z,93871.86
2022-11-07T08:54:47.085Z,93883.92
2022-11-07T08:59:54.168Z,93884.99
2022-11-07T09:05:01.124Z,93887.28
2022-11-07T09:10:09.998Z,93881.06
2022-11-07T09:15:17.333Z,93892.44
2022-11-07T09:20:24.730Z,93898.84
2022-11-07T09:25:31.696Z,93906.88
2022-11-07T09:30:38.650Z,93905.08
2022-11-07T09:35:45.661Z,93898.56
2022-11-07T09:40:57.355Z,93902.75
2022-11-07T09:46:33.695Z,93894.97
2022-11-07T09:51:47.388Z,93899.45
2022-11-07T09:56:55.923Z,93904.41
2022-11-07T10:02:02.817Z,93899.00
2022-11-07T10:07:20.970Z,93888.95
2022-11-07T10:12:43.174Z,93889.98
2022-11-07T10:17:56.674Z,93879.92
2022-11-07T10:23:36.415Z,93883.13
2022-11-07T10:28:50.126Z,93883.13
2022-11-07T10:34:26.447Z,93884.30
2022-11-07T10:39:34.589Z,93877.50
2022-11-07T10:44:44.432Z,93874.58
2022-11-07T10:50:04.100Z,93866.29
2022-11-07T10:55:17.235Z,93865.83
2022-11-07T11:00:40.430Z,93856.66
2022-11-07T11:05:48.420Z,93862.00
2022-11-07T11:10:55.153Z,93860.67
2022-11-07T11:16:18.120Z,93854.44
2022-11-07T11:21:25.975Z,93848.33
2022-11-07T11:26:41.674Z,93842.81
2022-11-07T11:31:52.191Z,93839.42
2022-11-07T11:37:12.799Z,93829.97
2022-11-07T11:42:29.848Z,93826.27
2022-11-07T11:47:49.844Z,93834.48
2022-11-07T11:52:56.828Z,93828.64
2022-11-07T11:58:10.894Z,93840.84
2022-11-07T12:03:22.276Z,93833.45
2022-11-07T12:08:39.106Z,93832.38
2022-11-07T12:14:14.086Z,93820.70
2022-11-07T12:19:31.752Z,93824.16
2022-11-07T12:25:01.832Z,93823.62
2022-11-07T12:30:27.924Z,93832.41
2022-11-07T12:35:39.261Z,93826.81
2022-11-07T12:41:22.584Z,93817.49
2022-11-07T12:46:39.220Z,93809.80
2022-11-07T12:52:26.612Z,93811.10
2022-11-07T12:57:37.880Z,93813.48
2022-11-07T13:03:16.510Z,93826.00
2022-11-07T13:08:34.803Z,93807.64
2022-11-07T13:13:46.274Z,93809.81
2022-11-07T13:18:52.444Z,93814.84
2022-11-07T13:24:03.530Z,93818.45
2022-11-07T13:29:29.729Z,93823.77
2022-11-07T13:34:52.676Z,93815.57
2022-11-07T13:40:10.568Z,93820.67
2022-11-07T13:45:29.932Z,93809.48
2022-11-07T13:50:47.184Z,93813.23
2022-11-07T13:56:13.072Z,93821.45
2022-11-07T14:01:20.010Z,93812.71
2022-11-07T14:06:27.276Z,93811.89
2022-11-07T14:11:36.709Z,93813.23
2022-11-07T14:16:53.067Z,93814.84
2022-11-07T14:22:00.480Z,93806.00
2022-11-07T14:27:22.413Z,93818.03
2022-11-07T14:32:32.009Z,93822.00
2022-11-07T14:37:42.031Z,93820.16
2022-11-07T14:42:50.283Z,93820.68
2022-11-07T14:47:57.297Z,93822.30
2022-11-07T14:53:15.214Z,93827.61
2022-11-07T14:58:25.071Z,93834.23
2022-11-07T15:03:38.230Z,93838.73
2022-11-07T15:08:44.614Z,93835.56
2022-11-07T15:13:51.567Z,93837.08
2022-11-07T15:19:04.625Z,93842.11
2022-11-07T15:24:39.451Z,93835.72
2022-11-07T15:30:02.214Z,93838.10
2022-11-07T15:40:30.010Z,93839.91
2022-11-07T15:45:36.623Z,93843.13
2022-11-07T15:50:45.898Z,93842.08
2022-11-07T15:55:58.833Z,93835.98
2022-11-07T16:01:05.568Z,93839.91
2022-11-07T16:06:31.062Z,93855.54
2022-11-07T16:11:37.931Z,93849.94
2022-11-07T16:16:47.403Z,93851.23
2022-11-07T16:21:54.321Z,93860.84
2022-11-07T16:27:01.135Z,93867.41
2022-11-07T16:32:07.971Z,93865.59
2022-11-07T16:37:14.592Z,93876.25
2022-11-07T16:42:21.284Z,93876.98
2022-11-07T16:47:28.206Z,93885.84
2022-11-07T16:52:34.918Z,93890.10
2022-11-07T16:57:42.876Z,93879.34
2022-11-07T17:02:50.151Z,93878.09
2022-11-07T17:07:57.521Z,93887.22
2022-11-07T17:13:04.888Z,93891.03
2022-11-07T17:18:21.566Z,93888.63
2022-11-07T17:23:30.474Z,93891.97
2022-11-07T17:28:37.714Z,93887.75
2022-11-07T17:33:44.460Z,93884.54
2022-11-07T17:38:51.884Z,93887.86
2022-11-07T17:44:00.639Z,93902.59
2022-11-07T17:49:09.232Z,93902.78
2022-11-07T17:54:17.320Z,93892.20
2022-11-07T17:59:24.435Z,93887.91
2022-11-07T18:04:31.199Z,93900.30
2022-11-07T18:09:37.969Z,93903.13
2022-11-07T18:14:44.624Z,93905.22
2022-11-07T18:19:51.331Z,93900.25
2022-11-07T18:24:58.203Z,93893.12
2022-11-07T18:30:06.805Z,93890.48
2022-11-07T18:35:13.798Z,93885.91
2022-11-07T18:40:21.384Z,93885.38
2022-11-07T18:45:28.123Z,93886.15
2022-11-07T18:50:36.530Z,93894.42
2022-11-07T18:55:43.549Z,93892.55
2022-11-07T19:00:50.792Z,93883.63
2022-11-07T19:05:59.104Z,93884.83
2022-11-07T19:11:09.475Z,93896.11
2022-11-07T19:16:19.325Z,93896.98
2022-11-07T19:21:26.264Z,93893.98
2022-11-07T19:26:34.896Z,93888.41
2022-11-07T19:31:42.102Z,93889.06
2022-11-07T19:36:49.164Z,93892.67
2022-11-07T19:41:56.433Z,93888.24
2022-11-07T19:47:03.686Z,93904.59
2022-11-07T19:52:10.559Z,93916.63
2022-11-07T19:57:17.779Z,93912.73
2022-11-07T20:02:34.428Z,93913.02
2022-11-07T20:07:33.180Z,93916.95
2022-11-07T20:12:40.160Z,93910.39
2022-11-07T20:17:47.371Z,93912.56
2022-11-07T20:22:54.459Z,93914.41
2022-11-07T20:28:01.793Z,93910.59
2022-11-07T20:33:08.545Z,93917.31
2022-11-07T20:38:15.547Z,93922.56
2022-11-07T20:43:22.570Z,93916.34
2022-11-07T20:48:31.374Z,93928.72
2022-11-07T20:53:45.426Z,93917.78
2022-11-07T20:58:51.667Z,93924.82
2022-11-07T21:03:58.733Z,93922.48
2022-11-07T21:09:07.564Z,93923.22
2022-11-07T21:14:15.044Z,93922.23
2022-11-07T21:19:22.255Z,93926.95
2022-11-07T21:24:33.535Z,93918.63
2022-11-07T21:29:40.413Z,93910.70
2022-11-07T21:34:47.855Z,93916.05
2022-11-07T21:39:55.300Z,93915.02
2022-11-07T21:45:02.037Z,93908.23
2022-11-07T21:50:30.873Z,93903.55
2022-11-07T21:55:19.300Z,93903.55
2022-11-07T22:00:27.870Z,93895.44
2022-11-07T22:05:35.048Z,93895.38
2022-11-07T22:10:41.693Z,93890.80
2022-11-07T22:15:50.390Z,93884.02
2022-11-07T22:21:01.553Z,93882.73
2022-11-07T22:26:12.838Z,93886.28
2022-11-07T22:31:26.284Z,93874.67
2022-11-07T22:36:33.365Z,93883.87
2022-11-07T22:41:40.184Z,93865.37
2022-11-07T22:46:47.120Z,93869.39
2022-11-07T22:51:54.306Z,93871.92
2022-11-07T22:57:01.162Z,93860.38
2022-11-07T23:02:08.123Z,93856.73
2022-11-07T23:07:15.092Z,93862.02
2022-11-07T23:12:21.772Z,93854.31
2022-11-07T23:17:29.949Z,93855.52
2022-11-07T23:22:37.449Z,93844.48
2022-11-07T23:27:44.274Z,93844.84
2022-11-07T23:32:50.951Z,93838.98
2022-11-07T23:37:57.767Z,93840.35
2022-11-07T23:43:04.913Z,93840.30
2022-11-07T23:48:32.338Z,93839.23
2022-11-07T23:53:57.812Z,93840.66
2022-11-07T23:59:22.620Z,93835.55
